الصفحة الرئيسية
METAR-TAF:

METAR-TAF

مطار :

فو كوك, فيتنام

دائرة عرض: 10-10-18N, خط طول: 103-59-28E, ارتفاع: 11 متر

مراقبة الطقس الحالي

تاريخ ووقت الإصدار 33 دقيقة قبل الساعة 17:00UTC
ريح 2 عقدة من الشمال الغربي
درجة الحرارة 27°درجة مئوية
الرطوبة 94%
ضغط 1007 hPa
الرؤية 10 كم أو أكثر
غيوم قليلة على ارتفاع 1500 قدم

METAR: VVPQ 181700Z 32002KT 9999 FEW015 27/26 Q1007 NOSIG

زمن: 00:33 (17:33 UTC)

توقعات

تاريخ ووقت الإصدار 6ساعات و 33 دقيقة قبل الساعة 11:00UTC
التوقعات صالحة من18 الساعة 12 UTC إلى 19 الساعة 12 UTC
ريح 7 عقدة من الجنوب الغربي
الرؤية 10 كم أو أكثر
غيوم متفرقة على ارتفاع 1700 قدم
مؤقت
من 18 الساعة 14 UTC إلى 18 الساعة 18 UTC
غيوم مفككة على ارتفاع 1500 قدم
غيوم قليلة على ارتفاع 1700 قدم, مزنة ركامية.
عاصفة رعدية,

TAF: VVPQ 181100Z 1812/1912 22007KT 9999 SCT017 TEMPO 1814/1818 TS BKN015 FEW017CB

أرصاد الطقس والتوقعات من أكثر من 4000 مطار (تقارير الطقس للمطار METAR والتنبؤ بالطقس بالمطارTAF).

المحطات المتاحة هي النقط الصفراء والحمراء على الخريطة.

حرك المؤشر فوق النقطة لمعرفة اسم المحطة.

ثم انقر لمعرفة أرصاد وتوقعات الطقس.

لتغيير الخارطة: اضغط على الأزرار الخضراء مع رمز الصليب الأسود للتكبير. على الزر الأخضر مع شرطة للتصغير، أو على الأسهم الخضراء للخرائط المجاورة.


METAR-TAF: